sensor_id;sensor_type;location;lat;lon;timestamp;P1;durP1;ratioP1;P2;durP2;ratioP2
77146;SDS011;66121;52.584;9.694;2023-12-07T00:02:23;52.20;;;22.73;;
77146;SDS011;66121;52.584;9.694;2023-12-07T00:04:49;46.67;;;20.83;;
77146;SDS011;66121;52.584;9.694;2023-12-07T00:07:14;47.97;;;20.30;;
77146;SDS011;66121;52.584;9.694;2023-12-07T00:09:39;51.93;;;21.93;;
77146;SDS011;66121;52.584;9.694;2023-12-07T00:12:05;50.20;;;21.13;;
77146;SDS011;66121;52.584;9.694;2023-12-07T00:14:31;45.80;;;19.90;;
77146;SDS011;66121;52.584;9.694;2023-12-07T00:16:56;41.90;;;18.30;;
77146;SDS011;66121;52.584;9.694;2023-12-07T00:19:22;48.40;;;20.35;;
77146;SDS011;66121;52.584;9.694;2023-12-07T00:21:47;45.17;;;19.52;;
77146;SDS011;66121;52.584;9.694;2023-12-07T00:24:12;44.17;;;20.13;;
77146;SDS011;66121;52.584;9.694;2023-12-07T00:26:38;43.90;;;19.63;;
77146;SDS011;66121;52.584;9.694;2023-12-07T00:29:03;45.90;;;20.57;;
77146;SDS011;66121;52.584;9.694;2023-12-07T00:31:28;42.15;;;18.77;;
77146;SDS011;66121;52.584;9.694;2023-12-07T00:33:54;43.07;;;19.83;;
77146;SDS011;66121;52.584;9.694;2023-12-07T00:36:19;42.63;;;20.93;;
77146;SDS011;66121;52.584;9.694;2023-12-07T00:38:45;41.60;;;19.65;;
77146;SDS011;66121;52.584;9.694;2023-12-07T00:41:10;40.92;;;18.50;;
77146;SDS011;66121;52.584;9.694;2023-12-07T00:43:36;45.05;;;18.83;;
77146;SDS011;66121;52.584;9.694;2023-12-07T00:46:01;39.80;;;17.90;;
77146;SDS011;66121;52.584;9.694;2023-12-07T00:48:27;42.72;;;18.73;;
77146;SDS011;66121;52.584;9.694;2023-12-07T00:50:52;41.92;;;18.27;;
77146;SDS011;66121;52.584;9.694;2023-12-07T00:53:18;42.53;;;19.33;;
77146;SDS011;66121;52.584;9.694;2023-12-07T00:55:43;40.70;;;18.70;;
77146;SDS011;66121;52.584;9.694;2023-12-07T00:58:08;43.63;;;20.23;;
77146;SDS011;66121;52.584;9.694;2023-12-07T01:00:34;41.30;;;18.63;;
77146;SDS011;66121;52.584;9.694;2023-12-07T01:02:59;38.60;;;17.33;;
77146;SDS011;66121;52.584;9.694;2023-12-07T01:05:25;41.95;;;18.23;;
77146;SDS011;66121;52.584;9.694;2023-12-07T01:07:50;40.33;;;18.70;;
77146;SDS011;66121;52.584;9.694;2023-12-07T01:10:16;36.03;;;17.25;;
77146;SDS011;66121;52.584;9.694;2023-12-07T01:12:41;36.50;;;17.13;;
77146;SDS011;66121;52.584;9.694;2023-12-07T01:15:06;37.13;;;17.23;;
77146;SDS011;66121;52.584;9.694;2023-12-07T01:17:32;36.00;;;16.27;;
77146;SDS011;66121;52.584;9.694;2023-12-07T01:19:57;42.00;;;17.23;;
77146;SDS011;66121;52.584;9.694;2023-12-07T01:22:22;38.13;;;17.87;;
77146;SDS011;66121;52.584;9.694;2023-12-07T01:24:48;40.30;;;17.57;;
77146;SDS011;66121;52.584;9.694;2023-12-07T01:27:13;39.80;;;17.23;;
77146;SDS011;66121;52.584;9.694;2023-12-07T01:29:38;33.57;;;16.63;;
77146;SDS011;66121;52.584;9.694;2023-12-07T01:32:04;35.87;;;16.80;;
77146;SDS011;66121;52.584;9.694;2023-12-07T01:34:30;36.13;;;16.40;;
77146;SDS011;66121;52.584;9.694;2023-12-07T01:36:57;35.85;;;16.58;;
77146;SDS011;66121;52.584;9.694;2023-12-07T01:39:22;36.35;;;17.33;;
77146;SDS011;66121;52.584;9.694;2023-12-07T01:41:48;34.00;;;16.97;;
77146;SDS011;66121;52.584;9.694;2023-12-07T01:44:13;36.80;;;17.43;;
77146;SDS011;66121;52.584;9.694;2023-12-07T01:46:38;37.63;;;17.73;;
77146;SDS011;66121;52.584;9.694;2023-12-07T01:49:04;34.93;;;17.10;;
77146;SDS011;66121;52.584;9.694;2023-12-07T01:51:29;33.83;;;16.47;;
77146;SDS011;66121;52.584;9.694;2023-12-07T01:53:55;36.10;;;15.90;;
77146;SDS011;66121;52.584;9.694;2023-12-07T01:56:21;34.97;;;16.20;;
77146;SDS011;66121;52.584;9.694;2023-12-07T01:58:50;33.38;;;16.02;;
77146;SDS011;66121;52.584;9.694;2023-12-07T02:01:16;35.60;;;17.40;;
77146;SDS011;66121;52.584;9.694;2023-12-07T02:03:41;31.38;;;16.60;;
77146;SDS011;66121;52.584;9.694;2023-12-07T02:06:07;33.58;;;15.60;;
77146;SDS011;66121;52.584;9.694;2023-12-07T02:08:36;34.50;;;16.55;;
77146;SDS011;66121;52.584;9.694;2023-12-07T02:11:06;35.15;;;16.60;;
77146;SDS011;66121;52.584;9.694;2023-12-07T02:13:33;32.92;;;16.30;;
77146;SDS011;66121;52.584;9.694;2023-12-07T02:15:59;33.00;;;16.05;;
77146;SDS011;66121;52.584;9.694;2023-12-07T02:18:38;35.42;;;16.33;;
77146;SDS011;66121;52.584;9.694;2023-12-07T02:21:13;37.10;;;16.83;;
77146;SDS011;66121;52.584;9.694;2023-12-07T02:23:45;34.05;;;15.90;;
77146;SDS011;66121;52.584;9.694;2023-12-07T02:29:12;32.40;;;16.25;;
77146;SDS011;66121;52.584;9.694;2023-12-07T02:31:38;34.30;;;15.97;;
77146;SDS011;66121;52.584;9.694;2023-12-07T02:34:03;36.33;;;16.52;;
77146;SDS011;66121;52.584;9.694;2023-12-07T02:36:29;35.03;;;15.80;;
77146;SDS011;66121;52.584;9.694;2023-12-07T02:38:58;36.03;;;17.55;;
77146;SDS011;66121;52.584;9.694;2023-12-07T02:41:28;35.70;;;16.70;;
77146;SDS011;66121;52.584;9.694;2023-12-07T02:43:55;32.72;;;15.45;;
77146;SDS011;66121;52.584;9.694;2023-12-07T02:46:22;36.00;;;15.88;;
77146;SDS011;66121;52.584;9.694;2023-12-07T02:48:48;34.33;;;15.77;;
77146;SDS011;66121;52.584;9.694;2023-12-07T02:51:13;34.87;;;17.40;;
77146;SDS011;66121;52.584;9.694;2023-12-07T02:53:38;29.37;;;14.13;;
77146;SDS011;66121;52.584;9.694;2023-12-07T02:56:04;35.43;;;15.77;;
77146;SDS011;66121;52.584;9.694;2023-12-07T02:58:30;35.10;;;17.60;;
77146;SDS011;66121;52.584;9.694;2023-12-07T03:00:55;36.47;;;16.33;;
77146;SDS011;66121;52.584;9.694;2023-12-07T03:03:20;35.77;;;17.07;;
77146;SDS011;66121;52.584;9.694;2023-12-07T03:05:45;37.93;;;15.83;;
77146;SDS011;66121;52.584;9.694;2023-12-07T03:08:11;38.33;;;16.93;;
77146;SDS011;66121;52.584;9.694;2023-12-07T03:10:36;34.65;;;16.67;;
77146;SDS011;66121;52.584;9.694;2023-12-07T03:13:01;32.57;;;16.00;;
77146;SDS011;66121;52.584;9.694;2023-12-07T03:15:27;33.20;;;16.42;;
77146;SDS011;66121;52.584;9.694;2023-12-07T03:17:52;33.57;;;15.93;;
77146;SDS011;66121;52.584;9.694;2023-12-07T03:20:18;36.53;;;16.50;;
77146;SDS011;66121;52.584;9.694;2023-12-07T03:22:43;33.23;;;15.20;;
77146;SDS011;66121;52.584;9.694;2023-12-07T03:25:08;32.15;;;14.35;;
77146;SDS011;66121;52.584;9.694;2023-12-07T03:27:34;33.53;;;17.47;;
77146;SDS011;66121;52.584;9.694;2023-12-07T03:29:59;39.80;;;17.77;;
77146;SDS011;66121;52.584;9.694;2023-12-07T03:32:24;35.83;;;16.37;;
77146;SDS011;66121;52.584;9.694;2023-12-07T03:34:49;38.40;;;17.03;;
77146;SDS011;66121;52.584;9.694;2023-12-07T03:37:15;31.03;;;14.70;;
77146;SDS011;66121;52.584;9.694;2023-12-07T03:39:40;31.87;;;15.50;;
77146;SDS011;66121;52.584;9.694;2023-12-07T03:42:05;34.87;;;16.77;;
77146;SDS011;66121;52.584;9.694;2023-12-07T03:44:31;35.35;;;16.73;;
77146;SDS011;66121;52.584;9.694;2023-12-07T03:46:56;35.27;;;16.47;;
77146;SDS011;66121;52.584;9.694;2023-12-07T03:49:21;35.23;;;14.93;;
77146;SDS011;66121;52.584;9.694;2023-12-07T03:51:47;40.83;;;17.37;;
77146;SDS011;66121;52.584;9.694;2023-12-07T03:54:12;41.60;;;18.70;;
77146;SDS011;66121;52.584;9.694;2023-12-07T03:56:37;38.40;;;18.13;;
77146;SDS011;66121;52.584;9.694;2023-12-07T03:59:03;35.70;;;16.60;;
77146;SDS011;66121;52.584;9.694;2023-12-07T04:01:28;34.53;;;16.10;;
77146;SDS011;66121;52.584;9.694;2023-12-07T04:03:55;36.30;;;16.17;;
77146;SDS011;66121;52.584;9.694;2023-12-07T04:06:21;38.90;;;17.13;;
77146;SDS011;66121;52.584;9.694;2023-12-07T04:08:47;39.97;;;18.38;;
77146;SDS011;66121;52.584;9.694;2023-12-07T04:11:13;41.37;;;17.70;;
77146;SDS011;66121;52.584;9.694;2023-12-07T04:13:38;38.28;;;16.80;;
77146;SDS011;66121;52.584;9.694;2023-12-07T04:16:04;39.72;;;17.17;;
77146;SDS011;66121;52.584;9.694;2023-12-07T04:18:30;41.05;;;16.85;;
77146;SDS011;66121;52.584;9.694;2023-12-07T04:20:56;37.15;;;16.45;;
77146;SDS011;66121;52.584;9.694;2023-12-07T04:23:21;35.72;;;16.40;;
77146;SDS011;66121;52.584;9.694;2023-12-07T04:25:46;35.70;;;16.93;;
77146;SDS011;66121;52.584;9.694;2023-12-07T04:28:12;37.57;;;16.33;;
77146;SDS011;66121;52.584;9.694;2023-12-07T04:30:37;32.73;;;15.57;;
77146;SDS011;66121;52.584;9.694;2023-12-07T04:33:02;39.63;;;16.37;;
77146;SDS011;66121;52.584;9.694;2023-12-07T04:35:28;36.85;;;16.15;;
77146;SDS011;66121;52.584;9.694;2023-12-07T04:37:53;33.90;;;15.80;;
77146;SDS011;66121;52.584;9.694;2023-12-07T04:40:19;34.70;;;15.40;;
77146;SDS011;66121;52.584;9.694;2023-12-07T04:42:44;35.63;;;16.37;;
77146;SDS011;66121;52.584;9.694;2023-12-07T04:45:10;31.40;;;14.67;;
77146;SDS011;66121;52.584;9.694;2023-12-07T04:47:35;32.90;;;15.40;;
77146;SDS011;66121;52.584;9.694;2023-12-07T04:50:00;32.87;;;14.27;;
77146;SDS011;66121;52.584;9.694;2023-12-07T04:52:25;30.57;;;14.87;;
77146;SDS011;66121;52.584;9.694;2023-12-07T04:54:51;29.93;;;15.50;;
77146;SDS011;66121;52.584;9.694;2023-12-07T04:57:16;31.30;;;15.20;;
77146;SDS011;66121;52.584;9.694;2023-12-07T04:59:41;29.20;;;14.50;;
77146;SDS011;66121;52.584;9.694;2023-12-07T05:02:11;32.85;;;15.75;;
77146;SDS011;66121;52.584;9.694;2023-12-07T05:04:37;31.45;;;14.88;;
77146;SDS011;66121;52.584;9.694;2023-12-07T05:07:03;28.87;;;14.60;;
77146;SDS011;66121;52.584;9.694;2023-12-07T05:09:29;35.67;;;16.20;;
77146;SDS011;66121;52.584;9.694;2023-12-07T05:11:55;34.25;;;16.48;;
77146;SDS011;66121;52.584;9.694;2023-12-07T05:14:21;30.92;;;15.07;;
77146;SDS011;66121;52.584;9.694;2023-12-07T05:16:46;33.50;;;15.53;;
77146;SDS011;66121;52.584;9.694;2023-12-07T05:19:13;35.97;;;17.02;;
77146;SDS011;66121;52.584;9.694;2023-12-07T05:21:38;32.35;;;16.42;;
77146;SDS011;66121;52.584;9.694;2023-12-07T05:24:04;36.85;;;15.85;;
77146;SDS011;66121;52.584;9.694;2023-12-07T05:26:29;34.58;;;14.93;;
77146;SDS011;66121;52.584;9.694;2023-12-07T05:28:57;35.60;;;16.08;;
77146;SDS011;66121;52.584;9.694;2023-12-07T05:31:24;35.15;;;16.15;;
77146;SDS011;66121;52.584;9.694;2023-12-07T05:33:49;38.13;;;16.92;;
77146;SDS011;66121;52.584;9.694;2023-12-07T05:36:14;35.73;;;16.63;;
77146;SDS011;66121;52.584;9.694;2023-12-07T05:38:39;37.23;;;16.33;;
77146;SDS011;66121;52.584;9.694;2023-12-07T05:41:05;36.93;;;15.10;;
77146;SDS011;66121;52.584;9.694;2023-12-07T05:43:30;37.75;;;16.38;;
77146;SDS011;66121;52.584;9.694;2023-12-07T05:45:56;34.72;;;16.15;;
77146;SDS011;66121;52.584;9.694;2023-12-07T05:48:21;34.63;;;15.50;;
77146;SDS011;66121;52.584;9.694;2023-12-07T05:50:46;39.87;;;17.60;;
77146;SDS011;66121;52.584;9.694;2023-12-07T05:53:11;32.27;;;15.10;;
77146;SDS011;66121;52.584;9.694;2023-12-07T05:55:38;34.27;;;15.77;;
77146;SDS011;66121;52.584;9.694;2023-12-07T05:58:04;32.00;;;15.35;;
77146;SDS011;66121;52.584;9.694;2023-12-07T06:00:29;35.10;;;17.20;;
77146;SDS011;66121;52.584;9.694;2023-12-07T06:02:54;33.40;;;15.45;;
77146;SDS011;66121;52.584;9.694;2023-12-07T06:05:19;37.47;;;18.37;;
77146;SDS011;66121;52.584;9.694;2023-12-07T06:07:46;39.40;;;17.70;;
77146;SDS011;66121;52.584;9.694;2023-12-07T06:10:11;35.60;;;16.00;;
77146;SDS011;66121;52.584;9.694;2023-12-07T06:12:36;38.60;;;16.75;;
77146;SDS011;66121;52.584;9.694;2023-12-07T06:15:02;37.47;;;16.13;;
77146;SDS011;66121;52.584;9.694;2023-12-07T06:17:27;41.35;;;17.15;;
77146;SDS011;66121;52.584;9.694;2023-12-07T06:19:53;42.10;;;18.13;;
77146;SDS011;66121;52.584;9.694;2023-12-07T06:22:18;46.77;;;17.23;;
77146;SDS011;66121;52.584;9.694;2023-12-07T06:24:44;43.30;;;18.13;;
77146;SDS011;66121;52.584;9.694;2023-12-07T06:27:09;40.67;;;16.75;;
77146;SDS011;66121;52.584;9.694;2023-12-07T06:29:35;39.33;;;17.33;;
77146;SDS011;66121;52.584;9.694;2023-12-07T06:32:00;40.00;;;17.65;;
77146;SDS011;66121;52.584;9.694;2023-12-07T06:34:25;42.70;;;16.23;;
77146;SDS011;66121;52.584;9.694;2023-12-07T06:36:51;41.97;;;18.33;;
77146;SDS011;66121;52.584;9.694;2023-12-07T06:39:16;39.90;;;17.45;;
77146;SDS011;66121;52.584;9.694;2023-12-07T06:41:41;39.77;;;16.47;;
77146;SDS011;66121;52.584;9.694;2023-12-07T06:44:07;40.17;;;17.53;;
77146;SDS011;66121;52.584;9.694;2023-12-07T06:46:33;46.83;;;18.30;;
77146;SDS011;66121;52.584;9.694;2023-12-07T06:48:58;42.83;;;16.75;;
77146;SDS011;66121;52.584;9.694;2023-12-07T06:51:25;38.50;;;16.25;;
77146;SDS011;66121;52.584;9.694;2023-12-07T06:53:50;46.33;;;18.53;;
77146;SDS011;66121;52.584;9.694;2023-12-07T06:56:17;42.30;;;17.42;;
77146;SDS011;66121;52.584;9.694;2023-12-07T06:58:42;43.05;;;16.58;;
77146;SDS011;66121;52.584;9.694;2023-12-07T07:01:08;38.65;;;18.33;;
77146;SDS011;66121;52.584;9.694;2023-12-07T07:03:33;40.87;;;17.10;;
77146;SDS011;66121;52.584;9.694;2023-12-07T07:06:00;39.20;;;17.23;;
77146;SDS011;66121;52.584;9.694;2023-12-07T07:08:25;44.03;;;17.98;;
77146;SDS011;66121;52.584;9.694;2023-12-07T07:10:51;42.83;;;17.57;;
77146;SDS011;66121;52.584;9.694;2023-12-07T07:13:16;42.47;;;16.83;;
77146;SDS011;66121;52.584;9.694;2023-12-07T07:15:42;40.55;;;17.85;;
77146;SDS011;66121;52.584;9.694;2023-12-07T07:18:08;41.35;;;18.80;;
77146;SDS011;66121;52.584;9.694;2023-12-07T07:20:34;39.38;;;18.35;;
77146;SDS011;66121;52.584;9.694;2023-12-07T07:22:59;35.23;;;16.67;;
77146;SDS011;66121;52.584;9.694;2023-12-07T07:25:24;42.10;;;17.03;;
77146;SDS011;66121;52.584;9.694;2023-12-07T07:27:50;46.67;;;18.03;;
77146;SDS011;66121;52.584;9.694;2023-12-07T07:30:15;48.38;;;18.90;;
77146;SDS011;66121;52.584;9.694;2023-12-07T07:32:41;46.93;;;20.43;;
77146;SDS011;66121;52.584;9.694;2023-12-07T07:35:06;46.60;;;21.27;;
77146;SDS011;66121;52.584;9.694;2023-12-07T07:37:32;42.75;;;18.17;;
77146;SDS011;66121;52.584;9.694;2023-12-07T07:39:58;40.03;;;18.77;;
77146;SDS011;66121;52.584;9.694;2023-12-07T07:42:24;38.45;;;17.90;;
77146;SDS011;66121;52.584;9.694;2023-12-07T07:44:50;39.55;;;17.85;;
77146;SDS011;66121;52.584;9.694;2023-12-07T07:47:15;42.97;;;18.73;;
77146;SDS011;66121;52.584;9.694;2023-12-07T07:49:40;42.43;;;18.87;;
77146;SDS011;66121;52.584;9.694;2023-12-07T07:52:06;44.73;;;19.20;;
77146;SDS011;66121;52.584;9.694;2023-12-07T07:54:31;40.20;;;17.57;;
77146;SDS011;66121;52.584;9.694;2023-12-07T07:56:56;45.10;;;18.80;;
77146;SDS011;66121;52.584;9.694;2023-12-07T07:59:22;36.85;;;16.60;;
77146;SDS011;66121;52.584;9.694;2023-12-07T08:01:47;43.15;;;16.63;;
77146;SDS011;66121;52.584;9.694;2023-12-07T08:04:13;36.85;;;16.77;;
77146;SDS011;66121;52.584;9.694;2023-12-07T08:06:38;38.08;;;17.10;;
77146;SDS011;66121;52.584;9.694;2023-12-07T08:09:03;39.73;;;16.20;;
77146;SDS011;66121;52.584;9.694;2023-12-07T08:11:29;41.33;;;18.38;;
77146;SDS011;66121;52.584;9.694;2023-12-07T08:13:54;34.40;;;16.53;;
77146;SDS011;66121;52.584;9.694;2023-12-07T08:16:19;32.13;;;17.13;;
77146;SDS011;66121;52.584;9.694;2023-12-07T08:18:45;38.03;;;17.80;;
77146;SDS011;66121;52.584;9.694;2023-12-07T08:21:18;38.83;;;17.23;;
77146;SDS011;66121;52.584;9.694;2023-12-07T08:23:44;42.97;;;19.67;;
77146;SDS011;66121;52.584;9.694;2023-12-07T08:26:10;34.40;;;16.67;;
77146;SDS011;66121;52.584;9.694;2023-12-07T08:28:36;40.45;;;17.90;;
77146;SDS011;66121;52.584;9.694;2023-12-07T08:31:01;42.03;;;17.92;;
77146;SDS011;66121;52.584;9.694;2023-12-07T08:33:27;40.90;;;16.17;;
77146;SDS011;66121;52.584;9.694;2023-12-07T08:35:52;38.33;;;14.10;;
77146;SDS011;66121;52.584;9.694;2023-12-07T08:38:20;32.45;;;15.07;;
77146;SDS011;66121;52.584;9.694;2023-12-07T08:40:46;34.83;;;16.75;;
77146;SDS011;66121;52.584;9.694;2023-12-07T08:43:12;34.83;;;15.63;;
77146;SDS011;66121;52.584;9.694;2023-12-07T08:45:37;39.00;;;16.63;;
77146;SDS011;66121;52.584;9.694;2023-12-07T08:48:03;30.27;;;14.95;;
77146;SDS011;66121;52.584;9.694;2023-12-07T08:50:29;31.52;;;14.05;;
77146;SDS011;66121;52.584;9.694;2023-12-07T08:52:54;32.70;;;15.02;;
77146;SDS011;66121;52.584;9.694;2023-12-07T08:55:20;38.15;;;16.10;;
77146;SDS011;66121;52.584;9.694;2023-12-07T08:57:45;35.72;;;15.57;;
77146;SDS011;66121;52.584;9.694;2023-12-07T09:00:11;36.17;;;16.52;;
77146;SDS011;66121;52.584;9.694;2023-12-07T09:02:38;37.15;;;15.85;;
77146;SDS011;66121;52.584;9.694;2023-12-07T09:05:03;36.65;;;15.88;;
77146;SDS011;66121;52.584;9.694;2023-12-07T09:07:28;33.22;;;14.73;;
77146;SDS011;66121;52.584;9.694;2023-12-07T09:09:54;35.97;;;15.03;;
77146;SDS011;66121;52.584;9.694;2023-12-07T09:12:19;36.38;;;17.00;;
77146;SDS011;66121;52.584;9.694;2023-12-07T09:14:44;37.80;;;16.13;;
77146;SDS011;66121;52.584;9.694;2023-12-07T09:17:10;41.20;;;16.97;;
77146;SDS011;66121;52.584;9.694;2023-12-07T09:19:35;33.27;;;14.90;;
77146;SDS011;66121;52.584;9.694;2023-12-07T09:22:00;39.57;;;17.57;;
77146;SDS011;66121;52.584;9.694;2023-12-07T09:24:26;33.93;;;15.97;;
77146;SDS011;66121;52.584;9.694;2023-12-07T09:26:51;33.23;;;15.10;;
77146;SDS011;66121;52.584;9.694;2023-12-07T09:29:17;36.95;;;15.77;;
77146;SDS011;66121;52.584;9.694;2023-12-07T09:31:42;37.30;;;17.10;;
77146;SDS011;66121;52.584;9.694;2023-12-07T09:34:07;36.90;;;16.67;;
77146;SDS011;66121;52.584;9.694;2023-12-07T09:36:33;35.67;;;16.98;;
77146;SDS011;66121;52.584;9.694;2023-12-07T09:38:59;34.60;;;15.32;;
77146;SDS011;66121;52.584;9.694;2023-12-07T09:41:24;35.77;;;16.00;;
77146;SDS011;66121;52.584;9.694;2023-12-07T09:43:52;33.92;;;16.05;;
77146;SDS011;66121;52.584;9.694;2023-12-07T09:46:17;33.15;;;15.07;;
77146;SDS011;66121;52.584;9.694;2023-12-07T09:48:44;31.75;;;15.63;;
77146;SDS011;66121;52.584;9.694;2023-12-07T09:51:10;34.13;;;15.88;;
77146;SDS011;66121;52.584;9.694;2023-12-07T09:53:36;37.78;;;16.40;;
77146;SDS011;66121;52.584;9.694;2023-12-07T09:56:04;32.53;;;15.20;;
77146;SDS011;66121;52.584;9.694;2023-12-07T09:58:30;32.47;;;15.70;;
77146;SDS011;66121;52.584;9.694;2023-12-07T10:00:55;32.30;;;15.52;;
77146;SDS011;66121;52.584;9.694;2023-12-07T10:03:21;34.53;;;15.97;;
77146;SDS011;66121;52.584;9.694;2023-12-07T10:05:57;31.95;;;15.48;;
77146;SDS011;66121;52.584;9.694;2023-12-07T10:08:31;34.33;;;16.30;;
77146;SDS011;66121;52.584;9.694;2023-12-07T10:11:07;35.90;;;16.27;;
77146;SDS011;66121;52.584;9.694;2023-12-07T10:13:34;34.50;;;15.23;;
77146;SDS011;66121;52.584;9.694;2023-12-07T10:16:13;29.80;;;14.70;;
77146;SDS011;66121;52.584;9.694;2023-12-07T10:18:41;28.80;;;14.23;;
77146;SDS011;66121;52.584;9.694;2023-12-07T10:21:07;33.97;;;15.48;;
77146;SDS011;66121;52.584;9.694;2023-12-07T10:23:34;35.00;;;16.38;;
77146;SDS011;66121;52.584;9.694;2023-12-07T10:26:00;35.20;;;15.55;;
77146;SDS011;66121;52.584;9.694;2023-12-07T10:28:25;36.35;;;16.10;;
77146;SDS011;66121;52.584;9.694;2023-12-07T10:30:50;34.10;;;15.60;;
77146;SDS011;66121;52.584;9.694;2023-12-07T10:33:16;33.00;;;14.60;;
77146;SDS011;66121;52.584;9.694;2023-12-07T10:35:42;30.23;;;14.57;;
77146;SDS011;66121;52.584;9.694;2023-12-07T10:38:08;33.25;;;15.40;;
77146;SDS011;66121;52.584;9.694;2023-12-07T10:40:33;30.95;;;15.68;;
77146;SDS011;66121;52.584;9.694;2023-12-07T10:42:59;30.13;;;15.00;;
77146;SDS011;66121;52.584;9.694;2023-12-07T10:45:29;32.28;;;15.73;;
77146;SDS011;66121;52.584;9.694;2023-12-07T10:47:58;28.55;;;14.57;;
77146;SDS011;66121;52.584;9.694;2023-12-07T10:50:36;33.03;;;15.02;;
77146;SDS011;66121;52.584;9.694;2023-12-07T10:53:10;36.40;;;16.92;;
77146;SDS011;66121;52.584;9.694;2023-12-07T10:55:45;35.63;;;16.77;;
77146;SDS011;66121;52.584;9.694;2023-12-07T10:58:16;35.30;;;15.13;;
77146;SDS011;66121;52.584;9.694;2023-12-07T11:00:43;31.58;;;14.40;;
77146;SDS011;66121;52.584;9.694;2023-12-07T11:03:12;30.10;;;14.50;;
77146;SDS011;66121;52.584;9.694;2023-12-07T11:05:39;32.88;;;15.02;;
77146;SDS011;66121;52.584;9.694;2023-12-07T11:08:06;33.42;;;16.83;;
77146;SDS011;66121;52.584;9.694;2023-12-07T11:10:36;41.10;;;19.42;;
77146;SDS011;66121;52.584;9.694;2023-12-07T11:13:17;36.00;;;16.85;;
77146;SDS011;66121;52.584;9.694;2023-12-07T11:15:48;38.80;;;17.17;;
77146;SDS011;66121;52.584;9.694;2023-12-07T11:18:13;35.58;;;15.85;;
77146;SDS011;66121;52.584;9.694;2023-12-07T11:20:45;31.15;;;14.60;;
77146;SDS011;66121;52.584;9.694;2023-12-07T11:23:17;32.72;;;14.43;;
77146;SDS011;66121;52.584;9.694;2023-12-07T11:25:46;35.85;;;16.52;;
77146;SDS011;66121;52.584;9.694;2023-12-07T11:28:12;32.25;;;14.90;;
77146;SDS011;66121;52.584;9.694;2023-12-07T11:30:41;34.15;;;15.23;;
77146;SDS011;66121;52.584;9.694;2023-12-07T11:33:08;36.25;;;17.20;;
77146;SDS011;66121;52.584;9.694;2023-12-07T11:35:40;30.27;;;14.93;;
77146;SDS011;66121;52.584;9.694;2023-12-07T11:38:29;35.03;;;16.05;;
77146;SDS011;66121;52.584;9.694;2023-12-07T11:40:55;33.67;;;16.05;;
77146;SDS011;66121;52.584;9.694;2023-12-07T11:46:00;34.38;;;15.90;;
77146;SDS011;66121;52.584;9.694;2023-12-07T11:48:25;34.50;;;15.43;;
77146;SDS011;66121;52.584;9.694;2023-12-07T11:50:58;34.83;;;16.17;;
77146;SDS011;66121;52.584;9.694;2023-12-07T11:53:31;27.98;;;14.23;;
77146;SDS011;66121;52.584;9.694;2023-12-07T11:58:29;32.42;;;14.68;;
77146;SDS011;66121;52.584;9.694;2023-12-07T12:00:55;25.35;;;13.90;;
77146;SDS011;66121;52.584;9.694;2023-12-07T12:03:21;28.85;;;14.55;;
77146;SDS011;66121;52.584;9.694;2023-12-07T12:05:50;29.20;;;15.13;;
77146;SDS011;66121;52.584;9.694;2023-12-07T12:08:16;31.65;;;14.35;;
77146;SDS011;66121;52.584;9.694;2023-12-07T12:10:45;28.90;;;14.57;;
77146;SDS011;66121;52.584;9.694;2023-12-07T12:13:12;29.65;;;14.25;;
77146;SDS011;66121;52.584;9.694;2023-12-07T12:15:38;32.65;;;14.75;;
77146;SDS011;66121;52.584;9.694;2023-12-07T12:18:08;27.52;;;14.13;;
77146;SDS011;66121;52.584;9.694;2023-12-07T12:20:34;29.65;;;13.23;;
77146;SDS011;66121;52.584;9.694;2023-12-07T12:23:00;29.60;;;14.05;;
77146;SDS011;66121;52.584;9.694;2023-12-07T12:25:26;29.95;;;14.63;;
77146;SDS011;66121;52.584;9.694;2023-12-07T12:28:03;31.67;;;15.00;;
77146;SDS011;66121;52.584;9.694;2023-12-07T12:30:29;28.70;;;14.15;;
77146;SDS011;66121;52.584;9.694;2023-12-07T12:32:56;29.20;;;15.18;;
77146;SDS011;66121;52.584;9.694;2023-12-07T12:35:22;30.02;;;14.45;;
77146;SDS011;66121;52.584;9.694;2023-12-07T12:37:48;29.42;;;15.32;;
77146;SDS011;66121;52.584;9.694;2023-12-07T12:40:15;32.22;;;15.35;;
77146;SDS011;66121;52.584;9.694;2023-12-07T12:42:43;31.88;;;15.73;;
77146;SDS011;66121;52.584;9.694;2023-12-07T12:45:10;30.17;;;13.82;;
77146;SDS011;66121;52.584;9.694;2023-12-07T12:47:38;28.83;;;14.13;;
77146;SDS011;66121;52.584;9.694;2023-12-07T12:50:06;34.70;;;14.80;;
77146;SDS011;66121;52.584;9.694;2023-12-07T12:52:32;27.90;;;14.82;;
77146;SDS011;66121;52.584;9.694;2023-12-07T12:54:59;28.20;;;13.05;;
77146;SDS011;66121;52.584;9.694;2023-12-07T12:57:24;33.38;;;14.40;;
77146;SDS011;66121;52.584;9.694;2023-12-07T12:59:50;31.27;;;15.13;;
77146;SDS011;66121;52.584;9.694;2023-12-07T13:02:16;33.67;;;16.23;;
77146;SDS011;66121;52.584;9.694;2023-12-07T13:04:43;33.80;;;16.23;;
77146;SDS011;66121;52.584;9.694;2023-12-07T13:07:10;31.80;;;13.75;;
77146;SDS011;66121;52.584;9.694;2023-12-07T13:09:37;29.17;;;13.55;;
77146;SDS011;66121;52.584;9.694;2023-12-07T13:12:02;33.35;;;15.73;;
77146;SDS011;66121;52.584;9.694;2023-12-07T13:14:28;29.75;;;14.70;;
77146;SDS011;66121;52.584;9.694;2023-12-07T13:16:53;32.70;;;15.43;;
77146;SDS011;66121;52.584;9.694;2023-12-07T13:19:18;31.17;;;14.13;;
77146;SDS011;66121;52.584;9.694;2023-12-07T13:21:45;33.45;;;15.77;;
77146;SDS011;66121;52.584;9.694;2023-12-07T13:24:10;28.40;;;13.55;;
77146;SDS011;66121;52.584;9.694;2023-12-07T13:26:37;30.58;;;14.43;;
77146;SDS011;66121;52.584;9.694;2023-12-07T13:29:03;30.45;;;14.70;;
77146;SDS011;66121;52.584;9.694;2023-12-07T13:31:29;30.03;;;14.40;;
77146;SDS011;66121;52.584;9.694;2023-12-07T13:33:54;27.60;;;15.30;;
77146;SDS011;66121;52.584;9.694;2023-12-07T13:36:20;31.90;;;14.55;;
77146;SDS011;66121;52.584;9.694;2023-12-07T13:38:48;31.52;;;15.05;;
77146;SDS011;66121;52.584;9.694;2023-12-07T13:41:13;31.97;;;14.80;;
77146;SDS011;66121;52.584;9.694;2023-12-07T13:43:38;33.92;;;14.63;;
77146;SDS011;66121;52.584;9.694;2023-12-07T13:46:04;33.77;;;13.87;;
77146;SDS011;66121;52.584;9.694;2023-12-07T13:48:29;32.30;;;14.45;;
77146;SDS011;66121;52.584;9.694;2023-12-07T13:50:54;34.08;;;16.50;;
77146;SDS011;66121;52.584;9.694;2023-12-07T13:53:20;31.70;;;15.10;;
77146;SDS011;66121;52.584;9.694;2023-12-07T13:55:45;31.60;;;15.68;;
77146;SDS011;66121;52.584;9.694;2023-12-07T13:58:12;35.42;;;15.18;;
77146;SDS011;66121;52.584;9.694;2023-12-07T14:00:37;31.60;;;15.83;;
77146;SDS011;66121;52.584;9.694;2023-12-07T14:03:03;34.20;;;15.40;;
77146;SDS011;66121;52.584;9.694;2023-12-07T14:05:31;36.70;;;15.20;;
77146;SDS011;66121;52.584;9.694;2023-12-07T14:07:56;38.67;;;15.97;;
77146;SDS011;66121;52.584;9.694;2023-12-07T14:10:22;38.37;;;16.87;;
77146;SDS011;66121;52.584;9.694;2023-12-07T14:12:48;44.78;;;20.20;;
77146;SDS011;66121;52.584;9.694;2023-12-07T14:15:13;45.38;;;21.80;;
77146;SDS011;66121;52.584;9.694;2023-12-07T14:17:39;40.03;;;20.10;;
77146;SDS011;66121;52.584;9.694;2023-12-07T14:20:04;47.60;;;21.43;;
77146;SDS011;66121;52.584;9.694;2023-12-07T14:22:32;39.85;;;18.00;;
77146;SDS011;66121;52.584;9.694;2023-12-07T14:24:57;41.25;;;20.08;;